sensor_id;sensor_type;location;lat;lon;timestamp;P1;durP1;ratioP1;P2;durP2;ratioP2
21677;SDS011;11000;50.360;7.582;2024-01-16T00:01:06;5.97;;;3.00;;
21677;SDS011;11000;50.360;7.582;2024-01-16T00:03:28;7.27;;;3.40;;
21677;SDS011;11000;50.360;7.582;2024-01-16T00:05:49;5.57;;;3.07;;
21677;SDS011;11000;50.360;7.582;2024-01-16T00:08:09;5.90;;;3.13;;
21677;SDS011;11000;50.360;7.582;2024-01-16T00:10:30;5.57;;;2.80;;
21677;SDS011;11000;50.360;7.582;2024-01-16T00:12:50;4.07;;;3.13;;
21677;SDS011;11000;50.360;7.582;2024-01-16T00:15:11;7.37;;;3.50;;
21677;SDS011;11000;50.360;7.582;2024-01-16T00:17:31;7.10;;;3.13;;
21677;SDS011;11000;50.360;7.582;2024-01-16T00:19:52;5.73;;;2.90;;
21677;SDS011;11000;50.360;7.582;2024-01-16T00:22:12;9.73;;;3.50;;
21677;SDS011;11000;50.360;7.582;2024-01-16T00:24:33;7.73;;;3.13;;
21677;SDS011;11000;50.360;7.582;2024-01-16T00:26:53;9.10;;;3.17;;
21677;SDS011;11000;50.360;7.582;2024-01-16T00:29:14;8.27;;;3.43;;
21677;SDS011;11000;50.360;7.582;2024-01-16T00:31:34;10.27;;;2.90;;
21677;SDS011;11000;50.360;7.582;2024-01-16T00:33:55;7.17;;;3.40;;
21677;SDS011;11000;50.360;7.582;2024-01-16T00:36:15;5.90;;;3.17;;
21677;SDS011;11000;50.360;7.582;2024-01-16T00:38:36;6.43;;;3.27;;
21677;SDS011;11000;50.360;7.582;2024-01-16T00:40:56;5.30;;;2.87;;
21677;SDS011;11000;50.360;7.582;2024-01-16T00:43:17;5.37;;;2.90;;
21677;SDS011;11000;50.360;7.582;2024-01-16T00:45:37;7.23;;;3.37;;
21677;SDS011;11000;50.360;7.582;2024-01-16T00:47:58;8.80;;;3.93;;
21677;SDS011;11000;50.360;7.582;2024-01-16T00:50:19;7.47;;;3.53;;
21677;SDS011;11000;50.360;7.582;2024-01-16T00:52:39;7.10;;;3.40;;
21677;SDS011;11000;50.360;7.582;2024-01-16T00:55:00;7.77;;;3.60;;
21677;SDS011;11000;50.360;7.582;2024-01-16T00:57:21;6.57;;;3.40;;
21677;SDS011;11000;50.360;7.582;2024-01-16T00:59:41;6.33;;;2.80;;
21677;SDS011;11000;50.360;7.582;2024-01-16T01:02:02;6.93;;;3.27;;
21677;SDS011;11000;50.360;7.582;2024-01-16T01:04:23;5.70;;;3.60;;
21677;SDS011;11000;50.360;7.582;2024-01-16T01:06:44;10.63;;;4.10;;
21677;SDS011;11000;50.360;7.582;2024-01-16T01:09:04;5.43;;;3.30;;
21677;SDS011;11000;50.360;7.582;2024-01-16T01:11:25;5.73;;;3.53;;
21677;SDS011;11000;50.360;7.582;2024-01-16T01:13:45;6.30;;;3.27;;
21677;SDS011;11000;50.360;7.582;2024-01-16T01:16:06;7.57;;;3.77;;
21677;SDS011;11000;50.360;7.582;2024-01-16T01:18:26;9.77;;;4.07;;
21677;SDS011;11000;50.360;7.582;2024-01-16T01:20:50;7.87;;;3.80;;
21677;SDS011;11000;50.360;7.582;2024-01-16T01:23:10;8.33;;;3.67;;
21677;SDS011;11000;50.360;7.582;2024-01-16T01:25:31;8.30;;;4.00;;
21677;SDS011;11000;50.360;7.582;2024-01-16T01:27:51;9.50;;;3.63;;
21677;SDS011;11000;50.360;7.582;2024-01-16T01:30:12;6.93;;;3.70;;
21677;SDS011;11000;50.360;7.582;2024-01-16T01:32:33;6.77;;;4.00;;
21677;SDS011;11000;50.360;7.582;2024-01-16T01:34:53;8.90;;;4.03;;
21677;SDS011;11000;50.360;7.582;2024-01-16T01:37:13;8.90;;;3.70;;
21677;SDS011;11000;50.360;7.582;2024-01-16T01:39:34;8.13;;;3.93;;
21677;SDS011;11000;50.360;7.582;2024-01-16T01:41:55;9.20;;;3.97;;
21677;SDS011;11000;50.360;7.582;2024-01-16T01:44:15;8.20;;;4.23;;
21677;SDS011;11000;50.360;7.582;2024-01-16T01:46:36;9.17;;;3.97;;
21677;SDS011;11000;50.360;7.582;2024-01-16T01:48:56;7.73;;;4.20;;
21677;SDS011;11000;50.360;7.582;2024-01-16T01:51:17;6.77;;;3.50;;
21677;SDS011;11000;50.360;7.582;2024-01-16T01:53:39;7.90;;;4.40;;
21677;SDS011;11000;50.360;7.582;2024-01-16T01:56:03;8.10;;;4.90;;
21677;SDS011;11000;50.360;7.582;2024-01-16T01:58:27;8.57;;;5.33;;
21677;SDS011;11000;50.360;7.582;2024-01-16T02:00:49;10.30;;;4.77;;
21677;SDS011;11000;50.360;7.582;2024-01-16T02:03:09;7.93;;;3.73;;
21677;SDS011;11000;50.360;7.582;2024-01-16T02:05:30;9.80;;;4.23;;
21677;SDS011;11000;50.360;7.582;2024-01-16T02:07:53;7.80;;;3.70;;
21677;SDS011;11000;50.360;7.582;2024-01-16T02:10:13;9.20;;;4.27;;
21677;SDS011;11000;50.360;7.582;2024-01-16T02:12:34;10.87;;;4.77;;
21677;SDS011;11000;50.360;7.582;2024-01-16T02:14:54;8.40;;;4.43;;
21677;SDS011;11000;50.360;7.582;2024-01-16T02:17:15;5.30;;;4.13;;
21677;SDS011;11000;50.360;7.582;2024-01-16T02:19:35;12.00;;;4.07;;
21677;SDS011;11000;50.360;7.582;2024-01-16T02:21:57;12.67;;;4.67;;
21677;SDS011;11000;50.360;7.582;2024-01-16T02:24:20;7.60;;;4.00;;
21677;SDS011;11000;50.360;7.582;2024-01-16T02:26:41;9.23;;;4.20;;
21677;SDS011;11000;50.360;7.582;2024-01-16T02:29:02;7.10;;;3.70;;
21677;SDS011;11000;50.360;7.582;2024-01-16T02:31:24;7.00;;;3.50;;
21677;SDS011;11000;50.360;7.582;2024-01-16T02:33:45;8.97;;;3.87;;
21677;SDS011;11000;50.360;7.582;2024-01-16T02:36:05;7.40;;;4.10;;
21677;SDS011;11000;50.360;7.582;2024-01-16T02:38:26;6.53;;;4.50;;
21677;SDS011;11000;50.360;7.582;2024-01-16T02:40:46;6.33;;;3.93;;
21677;SDS011;11000;50.360;7.582;2024-01-16T02:43:07;13.83;;;3.97;;
21677;SDS011;11000;50.360;7.582;2024-01-16T02:45:27;12.53;;;4.37;;
21677;SDS011;11000;50.360;7.582;2024-01-16T02:47:48;5.97;;;3.90;;
21677;SDS011;11000;50.360;7.582;2024-01-16T02:50:08;12.40;;;3.70;;
21677;SDS011;11000;50.360;7.582;2024-01-16T02:52:32;8.47;;;4.07;;
21677;SDS011;11000;50.360;7.582;2024-01-16T02:54:52;7.93;;;4.00;;
21677;SDS011;11000;50.360;7.582;2024-01-16T02:57:13;6.13;;;3.60;;
21677;SDS011;11000;50.360;7.582;2024-01-16T02:59:33;10.57;;;3.80;;
21677;SDS011;11000;50.360;7.582;2024-01-16T03:01:54;8.37;;;3.87;;
21677;SDS011;11000;50.360;7.582;2024-01-16T03:04:14;5.07;;;3.60;;
21677;SDS011;11000;50.360;7.582;2024-01-16T03:06:35;10.50;;;3.80;;
21677;SDS011;11000;50.360;7.582;2024-01-16T03:08:55;8.37;;;3.60;;
21677;SDS011;11000;50.360;7.582;2024-01-16T03:11:16;7.00;;;3.60;;
21677;SDS011;11000;50.360;7.582;2024-01-16T03:13:37;10.33;;;3.67;;
21677;SDS011;11000;50.360;7.582;2024-01-16T03:15:57;5.43;;;3.20;;
21677;SDS011;11000;50.360;7.582;2024-01-16T03:18:18;7.90;;;3.50;;
21677;SDS011;11000;50.360;7.582;2024-01-16T03:20:38;12.83;;;4.30;;
21677;SDS011;11000;50.360;7.582;2024-01-16T03:22:59;6.13;;;3.60;;
21677;SDS011;11000;50.360;7.582;2024-01-16T03:25:19;10.40;;;3.40;;
21677;SDS011;11000;50.360;7.582;2024-01-16T03:27:41;7.83;;;3.43;;
21677;SDS011;11000;50.360;7.582;2024-01-16T03:30:01;11.57;;;3.60;;
21677;SDS011;11000;50.360;7.582;2024-01-16T03:32:22;5.33;;;3.70;;
21677;SDS011;11000;50.360;7.582;2024-01-16T03:34:43;6.33;;;3.50;;
21677;SDS011;11000;50.360;7.582;2024-01-16T03:37:03;7.43;;;3.23;;
21677;SDS011;11000;50.360;7.582;2024-01-16T03:39:24;7.70;;;3.23;;
21677;SDS011;11000;50.360;7.582;2024-01-16T03:41:44;9.83;;;3.50;;
21677;SDS011;11000;50.360;7.582;2024-01-16T03:44:05;7.37;;;3.30;;
21677;SDS011;11000;50.360;7.582;2024-01-16T03:46:25;9.83;;;3.60;;
21677;SDS011;11000;50.360;7.582;2024-01-16T03:48:46;6.47;;;3.50;;
21677;SDS011;11000;50.360;7.582;2024-01-16T03:51:06;9.47;;;3.27;;
21677;SDS011;11000;50.360;7.582;2024-01-16T03:53:27;7.70;;;3.10;;
21677;SDS011;11000;50.360;7.582;2024-01-16T03:55:47;9.00;;;3.40;;
21677;SDS011;11000;50.360;7.582;2024-01-16T03:58:08;11.37;;;3.63;;
21677;SDS011;11000;50.360;7.582;2024-01-16T04:00:28;6.00;;;3.40;;
21677;SDS011;11000;50.360;7.582;2024-01-16T04:02:49;7.53;;;3.00;;
21677;SDS011;11000;50.360;7.582;2024-01-16T04:05:09;4.37;;;3.20;;
21677;SDS011;11000;50.360;7.582;2024-01-16T04:07:30;7.70;;;3.13;;
21677;SDS011;11000;50.360;7.582;2024-01-16T04:09:51;6.63;;;2.83;;
21677;SDS011;11000;50.360;7.582;2024-01-16T04:12:11;7.00;;;2.87;;
21677;SDS011;11000;50.360;7.582;2024-01-16T04:14:32;4.67;;;2.73;;
21677;SDS011;11000;50.360;7.582;2024-01-16T04:16:52;5.20;;;2.70;;
21677;SDS011;11000;50.360;7.582;2024-01-16T04:19:13;7.37;;;3.27;;
21677;SDS011;11000;50.360;7.582;2024-01-16T04:21:33;4.47;;;2.97;;
21677;SDS011;11000;50.360;7.582;2024-01-16T04:23:55;5.47;;;3.20;;
21677;SDS011;11000;50.360;7.582;2024-01-16T04:26:16;5.47;;;3.33;;
21677;SDS011;11000;50.360;7.582;2024-01-16T04:28:36;5.37;;;3.43;;
21677;SDS011;11000;50.360;7.582;2024-01-16T04:30:57;10.90;;;3.40;;
21677;SDS011;11000;50.360;7.582;2024-01-16T04:33:17;4.30;;;3.13;;
21677;SDS011;11000;50.360;7.582;2024-01-16T04:35:38;6.80;;;3.07;;
21677;SDS011;11000;50.360;7.582;2024-01-16T04:37:58;7.97;;;2.90;;
21677;SDS011;11000;50.360;7.582;2024-01-16T04:40:19;7.80;;;3.47;;
21677;SDS011;11000;50.360;7.582;2024-01-16T04:42:39;10.67;;;3.60;;
21677;SDS011;11000;50.360;7.582;2024-01-16T04:45:00;7.60;;;3.10;;
21677;SDS011;11000;50.360;7.582;2024-01-16T04:47:20;11.80;;;3.47;;
21677;SDS011;11000;50.360;7.582;2024-01-16T04:49:41;9.03;;;3.63;;
21677;SDS011;11000;50.360;7.582;2024-01-16T04:52:02;8.00;;;3.13;;
21677;SDS011;11000;50.360;7.582;2024-01-16T04:54:23;10.57;;;3.20;;
21677;SDS011;11000;50.360;7.582;2024-01-16T04:56:43;9.20;;;3.23;;
21677;SDS011;11000;50.360;7.582;2024-01-16T04:59:04;9.47;;;3.57;;
21677;SDS011;11000;50.360;7.582;2024-01-16T05:01:24;7.30;;;4.20;;
21677;SDS011;11000;50.360;7.582;2024-01-16T05:03:45;8.47;;;3.23;;
21677;SDS011;11000;50.360;7.582;2024-01-16T05:06:11;6.97;;;3.40;;
21677;SDS011;11000;50.360;7.582;2024-01-16T05:08:35;6.93;;;3.47;;
21677;SDS011;11000;50.360;7.582;2024-01-16T05:10:56;9.33;;;3.90;;
21677;SDS011;11000;50.360;7.582;2024-01-16T05:13:18;8.37;;;3.90;;
21677;SDS011;11000;50.360;7.582;2024-01-16T05:15:40;9.07;;;3.83;;
21677;SDS011;11000;50.360;7.582;2024-01-16T05:18:00;6.97;;;3.83;;
21677;SDS011;11000;50.360;7.582;2024-01-16T05:20:21;10.60;;;3.90;;
21677;SDS011;11000;50.360;7.582;2024-01-16T05:22:41;9.27;;;3.90;;
21677;SDS011;11000;50.360;7.582;2024-01-16T05:25:02;9.40;;;3.93;;
21677;SDS011;11000;50.360;7.582;2024-01-16T05:27:22;6.97;;;3.37;;
21677;SDS011;11000;50.360;7.582;2024-01-16T05:29:43;10.87;;;4.23;;
21677;SDS011;11000;50.360;7.582;2024-01-16T05:32:04;5.70;;;3.87;;
21677;SDS011;11000;50.360;7.582;2024-01-16T05:34:24;5.70;;;3.70;;
21677;SDS011;11000;50.360;7.582;2024-01-16T05:36:46;12.37;;;4.40;;
21677;SDS011;11000;50.360;7.582;2024-01-16T05:39:06;8.90;;;4.10;;
21677;SDS011;11000;50.360;7.582;2024-01-16T05:41:34;14.43;;;4.43;;
21677;SDS011;11000;50.360;7.582;2024-01-16T05:43:55;5.83;;;3.60;;
21677;SDS011;11000;50.360;7.582;2024-01-16T05:46:15;10.10;;;4.07;;
21677;SDS011;11000;50.360;7.582;2024-01-16T05:48:36;7.63;;;3.67;;
21677;SDS011;11000;50.360;7.582;2024-01-16T05:50:57;12.83;;;4.13;;
21677;SDS011;11000;50.360;7.582;2024-01-16T05:53:17;6.93;;;3.80;;
21677;SDS011;11000;50.360;7.582;2024-01-16T05:55:38;6.40;;;3.47;;
21677;SDS011;11000;50.360;7.582;2024-01-16T05:57:58;9.43;;;3.80;;
21677;SDS011;11000;50.360;7.582;2024-01-16T06:00:21;7.90;;;4.10;;
21677;SDS011;11000;50.360;7.582;2024-01-16T06:02:42;8.90;;;4.07;;
21677;SDS011;11000;50.360;7.582;2024-01-16T06:05:04;10.10;;;4.20;;
21677;SDS011;11000;50.360;7.582;2024-01-16T06:07:25;8.10;;;3.77;;
21677;SDS011;11000;50.360;7.582;2024-01-16T06:09:46;8.10;;;3.63;;
21677;SDS011;11000;50.360;7.582;2024-01-16T06:12:06;6.70;;;3.73;;
21677;SDS011;11000;50.360;7.582;2024-01-16T06:14:27;10.27;;;4.00;;
21677;SDS011;11000;50.360;7.582;2024-01-16T06:16:48;8.13;;;3.70;;
21677;SDS011;11000;50.360;7.582;2024-01-16T06:19:09;8.67;;;4.07;;
21677;SDS011;11000;50.360;7.582;2024-01-16T06:21:29;7.87;;;3.83;;
21677;SDS011;11000;50.360;7.582;2024-01-16T06:23:51;9.40;;;3.70;;
21677;SDS011;11000;50.360;7.582;2024-01-16T06:26:11;10.13;;;3.67;;
21677;SDS011;11000;50.360;7.582;2024-01-16T06:28:32;6.80;;;3.30;;
21677;SDS011;11000;50.360;7.582;2024-01-16T06:30:52;7.70;;;3.50;;
21677;SDS011;11000;50.360;7.582;2024-01-16T06:33:13;8.73;;;3.80;;
21677;SDS011;11000;50.360;7.582;2024-01-16T06:35:33;7.37;;;3.47;;
21677;SDS011;11000;50.360;7.582;2024-01-16T06:37:54;7.57;;;3.80;;
21677;SDS011;11000;50.360;7.582;2024-01-16T06:40:14;5.27;;;3.30;;
21677;SDS011;11000;50.360;7.582;2024-01-16T06:42:35;10.17;;;3.90;;
21677;SDS011;11000;50.360;7.582;2024-01-16T06:44:58;12.43;;;4.07;;
21677;SDS011;11000;50.360;7.582;2024-01-16T06:47:19;9.97;;;3.33;;
21677;SDS011;11000;50.360;7.582;2024-01-16T06:49:39;7.53;;;3.20;;
21677;SDS011;11000;50.360;7.582;2024-01-16T06:52:00;7.37;;;3.63;;
21677;SDS011;11000;50.360;7.582;2024-01-16T06:54:20;6.80;;;3.17;;
21677;SDS011;11000;50.360;7.582;2024-01-16T06:56:41;9.20;;;3.70;;
21677;SDS011;11000;50.360;7.582;2024-01-16T06:59:02;9.70;;;4.30;;
21677;SDS011;11000;50.360;7.582;2024-01-16T07:01:23;10.00;;;3.07;;
21677;SDS011;11000;50.360;7.582;2024-01-16T07:03:43;4.63;;;3.27;;
21677;SDS011;11000;50.360;7.582;2024-01-16T07:06:04;5.60;;;3.03;;
21677;SDS011;11000;50.360;7.582;2024-01-16T07:08:24;11.10;;;3.30;;
21677;SDS011;11000;50.360;7.582;2024-01-16T07:10:45;8.77;;;3.57;;
21677;SDS011;11000;50.360;7.582;2024-01-16T07:13:06;7.80;;;3.57;;
21677;SDS011;11000;50.360;7.582;2024-01-16T07:15:27;9.43;;;3.60;;
21677;SDS011;11000;50.360;7.582;2024-01-16T07:17:48;9.00;;;3.20;;
21677;SDS011;11000;50.360;7.582;2024-01-16T07:20:09;9.47;;;3.43;;
21677;SDS011;11000;50.360;7.582;2024-01-16T07:22:30;8.57;;;3.50;;
21677;SDS011;11000;50.360;7.582;2024-01-16T07:24:50;5.03;;;2.97;;
21677;SDS011;11000;50.360;7.582;2024-01-16T07:27:10;7.43;;;2.87;;
21677;SDS011;11000;50.360;7.582;2024-01-16T07:29:31;8.57;;;2.97;;
21677;SDS011;11000;50.360;7.582;2024-01-16T07:31:51;8.53;;;3.13;;
21677;SDS011;11000;50.360;7.582;2024-01-16T07:34:12;7.80;;;4.00;;
21677;SDS011;11000;50.360;7.582;2024-01-16T07:36:37;4.97;;;3.07;;
21677;SDS011;11000;50.360;7.582;2024-01-16T07:38:57;7.43;;;3.37;;
21677;SDS011;11000;50.360;7.582;2024-01-16T07:41:18;11.33;;;3.40;;
21677;SDS011;11000;50.360;7.582;2024-01-16T07:43:39;6.03;;;3.17;;
21677;SDS011;11000;50.360;7.582;2024-01-16T07:45:59;10.43;;;3.67;;
21677;SDS011;11000;50.360;7.582;2024-01-16T07:48:20;4.93;;;3.73;;
21677;SDS011;11000;50.360;7.582;2024-01-16T07:50:40;6.70;;;3.60;;
21677;SDS011;11000;50.360;7.582;2024-01-16T07:53:01;9.43;;;3.83;;
21677;SDS011;11000;50.360;7.582;2024-01-16T07:55:21;8.10;;;3.63;;
21677;SDS011;11000;50.360;7.582;2024-01-16T07:57:42;8.77;;;3.97;;
21677;SDS011;11000;50.360;7.582;2024-01-16T08:00:03;10.63;;;4.40;;
21677;SDS011;11000;50.360;7.582;2024-01-16T08:02:30;11.90;;;4.20;;
21677;SDS011;11000;50.360;7.582;2024-01-16T08:04:52;8.97;;;4.10;;
21677;SDS011;11000;50.360;7.582;2024-01-16T08:07:13;5.83;;;3.70;;
21677;SDS011;11000;50.360;7.582;2024-01-16T08:09:33;7.03;;;4.23;;
21677;SDS011;11000;50.360;7.582;2024-01-16T08:11:55;10.73;;;4.97;;
21677;SDS011;11000;50.360;7.582;2024-01-16T08:14:15;4.87;;;4.03;;
21677;SDS011;11000;50.360;7.582;2024-01-16T08:16:36;13.50;;;5.00;;
21677;SDS011;11000;50.360;7.582;2024-01-16T08:18:56;6.30;;;4.37;;
21677;SDS011;11000;50.360;7.582;2024-01-16T08:21:17;5.80;;;4.13;;
21677;SDS011;11000;50.360;7.582;2024-01-16T08:23:37;6.73;;;4.20;;
21677;SDS011;11000;50.360;7.582;2024-01-16T08:25:58;9.33;;;4.23;;
21677;SDS011;11000;50.360;7.582;2024-01-16T08:28:18;7.97;;;4.27;;
21677;SDS011;11000;50.360;7.582;2024-01-16T08:30:39;11.23;;;4.57;;
21677;SDS011;11000;50.360;7.582;2024-01-16T08:32:59;10.27;;;4.47;;
21677;SDS011;11000;50.360;7.582;2024-01-16T08:35:20;12.53;;;4.70;;
21677;SDS011;11000;50.360;7.582;2024-01-16T08:37:40;11.47;;;5.03;;
21677;SDS011;11000;50.360;7.582;2024-01-16T08:40:01;11.47;;;4.80;;
21677;SDS011;11000;50.360;7.582;2024-01-16T08:42:23;9.90;;;6.13;;
21677;SDS011;11000;50.360;7.582;2024-01-16T08:44:44;15.17;;;6.40;;
21677;SDS011;11000;50.360;7.582;2024-01-16T08:47:05;14.60;;;6.73;;
21677;SDS011;11000;50.360;7.582;2024-01-16T08:49:26;12.50;;;7.47;;
21677;SDS011;11000;50.360;7.582;2024-01-16T08:51:47;12.87;;;7.57;;
21677;SDS011;11000;50.360;7.582;2024-01-16T08:54:07;14.70;;;7.67;;
21677;SDS011;11000;50.360;7.582;2024-01-16T08:56:28;12.97;;;6.47;;
21677;SDS011;11000;50.360;7.582;2024-01-16T08:58:48;9.83;;;5.10;;
21677;SDS011;11000;50.360;7.582;2024-01-16T09:01:09;11.43;;;5.53;;
21677;SDS011;11000;50.360;7.582;2024-01-16T09:03:30;9.07;;;5.07;;
21677;SDS011;11000;50.360;7.582;2024-01-16T09:05:54;13.03;;;5.33;;
21677;SDS011;11000;50.360;7.582;2024-01-16T09:08:14;13.07;;;5.27;;
21677;SDS011;11000;50.360;7.582;2024-01-16T09:10:35;13.30;;;5.73;;
21677;SDS011;11000;50.360;7.582;2024-01-16T09:12:55;7.57;;;4.90;;
21677;SDS011;11000;50.360;7.582;2024-01-16T09:15:16;11.77;;;4.80;;
21677;SDS011;11000;50.360;7.582;2024-01-16T09:17:36;12.40;;;5.43;;
21677;SDS011;11000;50.360;7.582;2024-01-16T09:19:57;8.93;;;4.97;;
21677;SDS011;11000;50.360;7.582;2024-01-16T09:22:17;12.90;;;5.20;;
21677;SDS011;11000;50.360;7.582;2024-01-16T09:24:38;7.47;;;4.80;;
21677;SDS011;11000;50.360;7.582;2024-01-16T09:26:58;9.00;;;4.80;;
21677;SDS011;11000;50.360;7.582;2024-01-16T09:29:19;8.43;;;4.30;;
21677;SDS011;11000;50.360;7.582;2024-01-16T09:31:40;7.17;;;4.10;;
21677;SDS011;11000;50.360;7.582;2024-01-16T09:34:02;13.43;;;5.20;;
21677;SDS011;11000;50.360;7.582;2024-01-16T09:36:23;9.70;;;4.87;;
21677;SDS011;11000;50.360;7.582;2024-01-16T09:38:44;11.17;;;5.73;;
21677;SDS011;11000;50.360;7.582;2024-01-16T09:41:04;11.47;;;5.60;;
21677;SDS011;11000;50.360;7.582;2024-01-16T09:43:28;10.90;;;5.50;;
21677;SDS011;11000;50.360;7.582;2024-01-16T09:45:49;13.10;;;5.43;;
21677;SDS011;11000;50.360;7.582;2024-01-16T09:48:11;12.43;;;5.83;;
21677;SDS011;11000;50.360;7.582;2024-01-16T09:50:33;11.03;;;5.30;;
21677;SDS011;11000;50.360;7.582;2024-01-16T09:52:54;9.47;;;4.83;;
21677;SDS011;11000;50.360;7.582;2024-01-16T09:55:15;8.90;;;4.97;;
21677;SDS011;11000;50.360;7.582;2024-01-16T09:57:35;7.57;;;4.63;;
21677;SDS011;11000;50.360;7.582;2024-01-16T10:00:00;8.53;;;5.03;;
21677;SDS011;11000;50.360;7.582;2024-01-16T10:02:23;7.43;;;4.80;;
21677;SDS011;11000;50.360;7.582;2024-01-16T10:04:43;8.17;;;5.00;;
21677;SDS011;11000;50.360;7.582;2024-01-16T10:07:04;11.60;;;4.60;;
21677;SDS011;11000;50.360;7.582;2024-01-16T10:09:26;10.20;;;5.17;;
21677;SDS011;11000;50.360;7.582;2024-01-16T10:11:46;7.70;;;4.67;;
21677;SDS011;11000;50.360;7.582;2024-01-16T10:14:08;8.77;;;5.03;;
21677;SDS011;11000;50.360;7.582;2024-01-16T10:19:19;9.57;;;5.20;;
21677;SDS011;11000;50.360;7.582;2024-01-16T10:21:39;8.33;;;5.00;;
21677;SDS011;11000;50.360;7.582;2024-01-16T10:24:10;8.17;;;4.90;;
21677;SDS011;11000;50.360;7.582;2024-01-16T10:26:32;12.47;;;5.23;;
21677;SDS011;11000;50.360;7.582;2024-01-16T10:28:53;8.70;;;4.40;;
21677;SDS011;11000;50.360;7.582;2024-01-16T10:31:25;8.30;;;4.77;;
21677;SDS011;11000;50.360;7.582;2024-01-16T10:33:50;9.13;;;5.10;;
21677;SDS011;11000;50.360;7.582;2024-01-16T10:36:14;8.37;;;5.50;;
21677;SDS011;11000;50.360;7.582;2024-01-16T10:38:36;11.37;;;5.63;;
21677;SDS011;11000;50.360;7.582;2024-01-16T10:41:31;8.20;;;4.77;;
21677;SDS011;11000;50.360;7.582;2024-01-16T10:43:45;8.40;;;4.90;;
21677;SDS011;11000;50.360;7.582;2024-01-16T10:46:15;11.77;;;4.67;;
21677;SDS011;11000;50.360;7.582;2024-01-16T10:48:37;9.40;;;4.30;;
21677;SDS011;11000;50.360;7.582;2024-01-16T10:50:58;10.37;;;4.73;;
21677;SDS011;11000;50.360;7.582;2024-01-16T10:53:19;7.93;;;4.83;;
21677;SDS011;11000;50.360;7.582;2024-01-16T10:55:43;7.43;;;4.50;;
21677;SDS011;11000;50.360;7.582;2024-01-16T10:58:12;9.43;;;4.73;;
21677;SDS011;11000;50.360;7.582;2024-01-16T11:00:34;5.00;;;3.80;;
21677;SDS011;11000;50.360;7.582;2024-01-16T11:03:01;8.20;;;4.93;;
21677;SDS011;11000;50.360;7.582;2024-01-16T11:05:26;10.90;;;4.73;;
21677;SDS011;11000;50.360;7.582;2024-01-16T11:07:50;10.90;;;4.70;;
21677;SDS011;11000;50.360;7.582;2024-01-16T11:10:14;11.60;;;4.47;;
21677;SDS011;11000;50.360;7.582;2024-01-16T11:12:34;8.77;;;3.93;;
21677;SDS011;11000;50.360;7.582;2024-01-16T11:14:58;7.57;;;4.07;;
21677;SDS011;11000;50.360;7.582;2024-01-16T11:17:21;8.70;;;4.10;;
21677;SDS011;11000;50.360;7.582;2024-01-16T11:19:44;4.60;;;4.07;;
21677;SDS011;11000;50.360;7.582;2024-01-16T11:22:05;5.23;;;4.10;;
21677;SDS011;11000;50.360;7.582;2024-01-16T11:24:26;10.83;;;3.73;;
21677;SDS011;11000;50.360;7.582;2024-01-16T11:26:47;9.40;;;4.30;;
21677;SDS011;11000;50.360;7.582;2024-01-16T11:31:46;6.73;;;3.33;;
21677;SDS011;11000;50.360;7.582;2024-01-16T11:34:07;9.67;;;3.40;;
21677;SDS011;11000;50.360;7.582;2024-01-16T11:39:16;7.70;;;3.87;;
21677;SDS011;11000;50.360;7.582;2024-01-16T11:41:50;10.43;;;3.63;;
21677;SDS011;11000;50.360;7.582;2024-01-16T11:44:35;12.27;;;3.60;;
21677;SDS011;11000;50.360;7.582;2024-01-16T11:47:03;5.77;;;3.03;;
21677;SDS011;11000;50.360;7.582;2024-01-16T11:49:24;7.20;;;3.47;;
21677;SDS011;11000;50.360;7.582;2024-01-16T11:51:45;7.77;;;3.40;;
21677;SDS011;11000;50.360;7.582;2024-01-16T11:54:06;7.17;;;3.03;;
21677;SDS011;11000;50.360;7.582;2024-01-16T11:56:38;8.53;;;3.40;;
21677;SDS011;11000;50.360;7.582;2024-01-16T11:59:35;6.93;;;3.33;;
21677;SDS011;11000;50.360;7.582;2024-01-16T12:02:09;7.03;;;3.00;;
21677;SDS011;11000;50.360;7.582;2024-01-16T12:04:34;4.80;;;2.87;;
21677;SDS011;11000;50.360;7.582;2024-01-16T12:06:57;5.80;;;2.93;;
21677;SDS011;11000;50.360;7.582;2024-01-16T12:09:19;6.17;;;2.80;;
21677;SDS011;11000;50.360;7.582;2024-01-16T12:11:40;7.13;;;3.50;;
21677;SDS011;11000;50.360;7.582;2024-01-16T12:14:05;5.20;;;2.63;;
21677;SDS011;11000;50.360;7.582;2024-01-16T12:16:25;6.33;;;3.10;;
21677;SDS011;11000;50.360;7.582;2024-01-16T12:18:47;5.10;;;3.03;;
21677;SDS011;11000;50.360;7.582;2024-01-16T12:21:08;8.57;;;2.73;;
21677;SDS011;11000;50.360;7.582;2024-01-16T12:23:29;7.37;;;2.90;;
21677;SDS011;11000;50.360;7.582;2024-01-16T12:25:52;8.87;;;3.10;;
21677;SDS011;11000;50.360;7.582;2024-01-16T12:28:20;8.50;;;2.83;;
21677;SDS011;11000;50.360;7.582;2024-01-16T12:30:41;12.43;;;2.90;;
21677;SDS011;11000;50.360;7.582;2024-01-16T12:33:10;6.23;;;2.70;;
21677;SDS011;11000;50.360;7.582;2024-01-16T12:35:35;7.97;;;3.43;;
21677;SDS011;11000;50.360;7.582;2024-01-16T12:38:05;12.53;;;2.90;;
21677;SDS011;11000;50.360;7.582;2024-01-16T12:40:29;5.63;;;2.83;;
21677;SDS011;11000;50.360;7.582;2024-01-16T12:42:49;9.77;;;3.50;;
21677;SDS011;11000;50.360;7.582;2024-01-16T12:45:10;3.27;;;2.13;;
21677;SDS011;11000;50.360;7.582;2024-01-16T12:47:31;8.27;;;3.30;;
21677;SDS011;11000;50.360;7.582;2024-01-16T12:49:51;7.13;;;2.63;;
21677;SDS011;11000;50.360;7.582;2024-01-16T12:54:41;8.70;;;3.40;;
21677;SDS011;11000;50.360;7.582;2024-01-16T12:57:01;6.13;;;2.63;;
21677;SDS011;11000;50.360;7.582;2024-01-16T12:59:22;5.17;;;2.67;;
21677;SDS011;11000;50.360;7.582;2024-01-16T13:01:49;6.23;;;2.93;;
21677;SDS011;11000;50.360;7.582;2024-01-16T13:04:10;7.73;;;3.20;;
21677;SDS011;11000;50.360;7.582;2024-01-16T13:06:31;6.73;;;2.80;;
21677;SDS011;11000;50.360;7.582;2024-01-16T13:09:03;7.03;;;2.80;;
21677;SDS011;11000;50.360;7.582;2024-01-16T13:11:29;8.27;;;2.90;;
21677;SDS011;11000;50.360;7.582;2024-01-16T13:14:00;7.70;;;2.90;;
21677;SDS011;11000;50.360;7.582;2024-01-16T13:16:24;7.10;;;2.27;;
21677;SDS011;11000;50.360;7.582;2024-01-16T13:18:44;5.77;;;2.53;;
21677;SDS011;11000;50.360;7.582;2024-01-16T13:21:05;7.90;;;3.13;;
21677;SDS011;11000;50.360;7.582;2024-01-16T13:23:26;10.20;;;3.27;;
21677;SDS011;11000;50.360;7.582;2024-01-16T13:25:48;7.17;;;2.63;;
21677;SDS011;11000;50.360;7.582;2024-01-16T13:28:09;5.70;;;3.00;;
21677;SDS011;11000;50.360;7.582;2024-01-16T13:30:29;6.27;;;3.07;;
21677;SDS011;11000;50.360;7.582;2024-01-16T13:32:50;7.03;;;3.10;;
21677;SDS011;11000;50.360;7.582;2024-01-16T13:35:11;7.80;;;2.67;;
21677;SDS011;11000;50.360;7.582;2024-01-16T13:37:32;6.20;;;2.87;;
21677;SDS011;11000;50.360;7.582;2024-01-16T13:39:52;4.27;;;2.60;;
21677;SDS011;11000;50.360;7.582;2024-01-16T13:42:13;6.80;;;3.13;;
21677;SDS011;11000;50.360;7.582;2024-01-16T13:44:38;4.50;;;2.43;;
21677;SDS011;11000;50.360;7.582;2024-01-16T13:46:58;5.03;;;2.50;;
21677;SDS011;11000;50.360;7.582;2024-01-16T13:49:19;9.30;;;2.90;;
21677;SDS011;11000;50.360;7.582;2024-01-16T13:51:40;4.57;;;2.60;;
21677;SDS011;11000;50.360;7.582;2024-01-16T13:54:04;9.87;;;2.80;;
21677;SDS011;11000;50.360;7.582;2024-01-16T13:56:25;6.33;;;2.87;;
21677;SDS011;11000;50.360;7.582;2024-01-16T13:58:46;6.30;;;2.23;;
21677;SDS011;11000;50.360;7.582;2024-01-16T14:01:07;8.20;;;2.47;;
21677;SDS011;11000;50.360;7.582;2024-01-16T14:03:28;4.60;;;2.70;;
21677;SDS011;11000;50.360;7.582;2024-01-16T14:05:49;9.83;;;2.70;;
21677;SDS011;11000;50.360;7.582;2024-01-16T14:08:10;5.60;;;2.13;;
21677;SDS011;11000;50.360;7.582;2024-01-16T14:10:32;8.43;;;3.30;;
21677;SDS011;11000;50.360;7.582;2024-01-16T14:12:53;6.87;;;2.37;;
21677;SDS011;11000;50.360;7.582;2024-01-16T14:15:15;7.43;;;3.17;;
21677;SDS011;11000;50.360;7.582;2024-01-16T14:17:39;8.63;;;2.77;;
21677;SDS011;11000;50.360;7.582;2024-01-16T14:19:59;5.73;;;2.60;;
21677;SDS011;11000;50.360;7.582;2024-01-16T14:22:20;5.30;;;2.17;;